Oakfield, Tennessee
Current Conditions -  °F | °C
As of 9:53 AM on Thursday 27 Nov 2014 (Local Time) from KMKL Reporting Station
Overcast Overcast  
Wind Chill:   Ceiling: 2500
Heat Index:   Visibility: 10mi
Dew Point: -2°   Wind: 13mph
Humidity: 67%   Direction: 330°NNW
Pressure: 30.48"   Gusts: NA
Location:  35.72°N, 88.8°W
Report Text: KMKL 271553Z 33011KT 10SM BKN025 OVC030 04/M02 A3048 RMK AO2 SLP322 T00391017
Loading
Personal Weather Stations






























Interactive Weather Map New forecast layout! Learn more

10-Day Weather Forecast

Advertisements
Track Severe Weather on mobile